Time;durP1;ratioP1;P1;durP2;ratioP2;P2;SDS_P1;SDS_P2;PMS_P1;PMS_P2;Temp;Humidity;BMP_temperature;BMP_pressure;BME280_temperature;BME280_humidity;BME280_pressure;Samples;Min_cycle;Max_cycle;Signal;HPM_P1;HPM_P2
2022/12/20 00:01:20;;;;;;;6.20;3.57;;;4.00;99.90;;;;;;5025394;28;20441;-68
2022/12/20 00:03:49;;;;;;;6.33;3.27;;;3.90;99.90;;;;;;5028835;28;20753;-68
2022/12/20 00:06:15;;;;;;;6.10;3.00;;;3.90;99.90;;;;;;5030239;28;20406;-68
2022/12/20 00:08:40;;;;;;;10.43;3.30;;;3.90;99.90;;;;;;5028762;28;20413;-68
2022/12/20 00:11:08;;;;;;;6.40;3.53;;;3.80;99.90;;;;;;5026455;28;20205;-69
2022/12/20 00:13:34;;;;;;;6.70;3.13;;;3.80;99.90;;;;;;5026768;28;20731;-69
2022/12/20 00:16:10;;;;;;;10.63;3.00;;;3.90;99.90;;;;;;5021063;28;20953;-68
2022/12/20 00:18:37;;;;;;;13.43;3.70;;;3.90;99.90;;;;;;5025294;28;20886;-68
2022/12/20 00:21:05;;;;;;;6.03;3.40;;;3.90;99.90;;;;;;5025339;28;20413;-68
2022/12/20 00:23:32;;;;;;;5.50;2.77;;;3.90;99.90;;;;;;5024138;28;20503;-68
2022/12/20 00:26:09;;;;;;;7.53;3.27;;;3.80;99.90;;;;;;5030220;28;20506;-68
2022/12/20 00:28:36;;;;;;;7.03;3.03;;;3.80;99.90;;;;;;5023981;28;20425;-70
2022/12/20 00:31:03;;;;;;;4.80;2.47;;;3.70;99.90;;;;;;5030624;28;20448;-68
2022/12/20 00:33:29;;;;;;;8.33;3.37;;;3.70;99.90;;;;;;5030359;28;20421;-68
2022/12/20 00:35:57;;;;;;;10.93;3.30;;;3.70;99.90;;;;;;5030840;28;20479;-67
2022/12/20 00:38:24;;;;;;;5.47;2.87;;;3.70;99.90;;;;;;5030595;28;20916;-68
2022/12/20 00:41:11;;;;;;;5.73;2.27;;;3.70;99.90;;;;;;5025102;28;20443;-67
2022/12/20 00:43:37;;;;;;;4.83;2.40;;;3.70;99.90;;;;;;5022001;28;20895;-67
2022/12/20 00:46:04;;;;;;;10.93;3.77;;;3.70;99.90;;;;;;5022646;28;20560;-67
2022/12/20 00:48:30;;;;;;;4.27;2.37;;;3.70;99.90;;;;;;5030242;28;20432;-67
2022/12/20 00:51:05;;;;;;;3.87;2.10;;;3.60;99.90;;;;;;5026208;28;20459;-67
2022/12/20 00:53:31;;;;;;;6.43;2.57;;;3.60;99.90;;;;;;5027329;28;20511;-67
2022/12/20 00:55:57;;;;;;;5.33;2.60;;;3.50;99.90;;;;;;5026446;28;20480;-67
2022/12/20 00:58:23;;;;;;;7.23;2.90;;;3.50;99.90;;;;;;5029970;28;20440;-67
2022/12/20 01:00:49;;;;;;;4.20;2.40;;;3.50;99.90;;;;;;5027096;28;20421;-67
2022/12/20 01:03:15;;;;;;;5.63;2.53;;;3.50;99.90;;;;;;5022986;28;20717;-67
2022/12/20 01:05:52;;;;;;;7.90;3.07;;;3.70;99.90;;;;;;5022716;28;20673;-68
2022/12/20 01:08:18;;;;;;;18.20;3.27;;;3.70;99.90;;;;;;5024059;28;20626;-67
2022/12/20 01:10:43;;;;;;;5.93;2.73;;;3.80;99.90;;;;;;5022902;28;20544;-67
2022/12/20 01:13:09;;;;;;;9.30;3.73;;;3.80;99.90;;;;;;5028793;28;21010;-68
2022/12/20 01:15:35;;;;;;;6.87;2.73;;;3.70;99.90;;;;;;5033417;28;20210;-67
2022/12/20 01:18:00;;;;;;;7.20;3.40;;;3.70;99.90;;;;;;5030853;28;20186;-67
2022/12/20 01:20:26;;;;;;;8.00;3.73;;;3.70;99.90;;;;;;5033780;28;20194;-67
2022/12/20 01:22:51;;;;;;;4.13;2.63;;;3.70;99.90;;;;;;5033249;28;20185;-67
2022/12/20 01:25:17;;;;;;;6.67;2.80;;;3.70;99.90;;;;;;5032410;28;20662;-67
2022/12/20 01:27:42;;;;;;;5.23;2.67;;;3.70;99.90;;;;;;5028414;28;20189;-68
2022/12/20 01:30:09;;;;;;;7.80;3.57;;;3.70;99.90;;;;;;5027204;28;20230;-67
2022/12/20 01:32:34;;;;;;;7.30;2.83;;;3.70;99.90;;;;;;5026945;28;20186;-67
2022/12/20 01:35:00;;;;;;;8.17;3.30;;;3.70;99.90;;;;;;5028864;28;20413;-67
2022/12/20 01:37:25;;;;;;;5.83;3.80;;;3.70;99.90;;;;;;5026136;28;20635;-67
2022/12/20 01:39:51;;;;;;;4.80;3.20;;;3.80;99.90;;;;;;5032880;28;20182;-67
2022/12/20 01:42:17;;;;;;;9.50;3.93;;;3.90;99.90;;;;;;5032631;28;20272;-67
2022/12/20 01:44:42;;;;;;;6.67;3.30;;;4.00;99.90;;;;;;5028174;28;21000;-68
2022/12/20 01:47:09;;;;;;;9.20;3.80;;;4.00;99.90;;;;;;5024097;28;20181;-68
2022/12/20 01:49:41;;;;;;;8.50;4.07;;;4.00;99.90;;;;;;5022551;28;20191;-67
2022/12/20 01:52:13;;;;;;;7.37;3.37;;;4.00;99.90;;;;;;5024763;28;20425;-67
2022/12/20 01:54:52;;;;;;;9.30;3.60;;;4.00;99.90;;;;;;5029543;28;20422;-67
2022/12/20 01:57:23;;;;;;;7.00;3.37;;;4.00;99.90;;;;;;5026311;28;20524;-68
2022/12/20 01:59:50;;;;;;;4.63;3.13;;;4.00;99.90;;;;;;5025133;28;20441;-68
2022/12/20 02:02:17;;;;;;;5.23;2.77;;;4.00;99.90;;;;;;5024205;28;20433;-68
2022/12/20 02:04:42;;;;;;;8.40;3.30;;;3.90;99.90;;;;;;5026806;28;20440;-68
2022/12/20 02:07:12;;;;;;;7.33;3.40;;;3.90;99.90;;;;;;5028841;28;20906;-67
2022/12/20 02:09:38;;;;;;;7.63;3.93;;;3.80;99.90;;;;;;5028232;28;20285;-68
2022/12/20 02:12:09;;;;;;;3.43;2.83;;;3.80;99.90;;;;;;5024890;28;20471;-68
2022/12/20 02:15:01;;;;;;;7.97;3.07;;;3.80;99.90;;;;;;5023499;28;20925;-68
2022/12/20 02:17:45;;;;;;;5.70;3.33;;;3.70;99.90;;;;;;5014940;28;20425;-68
2022/12/20 02:20:22;;;;;;;6.50;2.87;;;3.70;99.90;;;;;;5028939;28;20443;-68
2022/12/20 02:22:59;;;;;;;9.17;3.23;;;3.60;99.90;;;;;;5028642;28;20420;-68
2022/12/20 02:25:49;;;;;;;8.77;3.10;;;3.60;99.90;;;;;;5024160;28;20909;-68
2022/12/20 02:28:48;;;;;;;6.53;3.10;;;3.70;99.90;;;;;;5024818;28;20484;-68
2022/12/20 02:31:23;;;;;;;7.43;3.83;;;3.70;99.90;;;;;;5026456;28;20425;-68
2022/12/20 02:33:52;;;;;;;10.00;3.83;;;3.70;99.90;;;;;;5022729;28;20422;-68
2022/12/20 02:36:18;;;;;;;8.17;3.97;;;3.60;99.90;;;;;;5028390;28;20425;-68
2022/12/20 02:38:44;;;;;;;8.17;3.90;;;3.60;99.90;;;;;;5025978;28;20430;-68
2022/12/20 02:41:18;;;;;;;6.60;3.20;;;3.60;99.90;;;;;;5027488;28;20187;-68
2022/12/20 02:46:33;;;;;;;7.40;3.67;;;3.60;99.90;;;;;;5021680;28;20424;-68
2022/12/20 02:49:03;;;;;;;4.50;2.93;;;3.70;99.90;;;;;;5024979;28;20504;-68
2022/12/20 02:51:31;;;;;;;9.43;2.93;;;3.70;99.90;;;;;;5023951;28;20514;-68
2022/12/20 02:53:58;;;;;;;6.57;2.53;;;3.60;99.90;;;;;;5026160;28;20429;-68
2022/12/20 02:56:39;;;;;;;8.00;3.20;;;3.60;99.90;;;;;;5031830;28;20800;-68
2022/12/20 02:59:07;;;;;;;7.60;3.30;;;3.50;99.90;;;;;;5023574;28;20487;-68
2022/12/20 03:01:37;;;;;;;5.10;2.60;;;3.50;99.90;;;;;;5023797;28;20413;-68
2022/12/20 03:04:04;;;;;;;3.20;2.20;;;3.40;99.90;;;;;;5018422;28;20484;-68
2022/12/20 03:06:30;;;;;;;4.40;3.00;;;3.40;99.90;;;;;;5030400;28;20432;-68
2022/12/20 03:08:56;;;;;;;6.87;3.30;;;3.40;99.90;;;;;;5029163;28;20421;-68
2022/12/20 03:11:22;;;;;;;5.60;2.80;;;3.40;99.90;;;;;;5029596;28;20496;-68
2022/12/20 03:13:48;;;;;;;5.87;3.03;;;3.40;99.90;;;;;;5027487;28;21186;-68
2022/12/20 03:16:14;;;;;;;4.97;3.07;;;3.30;99.90;;;;;;5023416;28;20185;-68
2022/12/20 03:18:39;;;;;;;7.23;2.43;;;3.30;99.90;;;;;;5027468;28;20178;-68
2022/12/20 03:21:05;;;;;;;6.70;2.23;;;3.20;99.90;;;;;;5030117;28;20512;-68
2022/12/20 03:23:31;;;;;;;5.93;2.90;;;3.20;99.90;;;;;;5031000;28;20194;-69
2022/12/20 03:25:57;;;;;;;5.83;2.97;;;3.20;99.90;;;;;;5025651;28;20182;-68
2022/12/20 03:28:22;;;;;;;4.70;2.93;;;3.20;99.90;;;;;;5031187;28;20479;-68
2022/12/20 03:30:48;;;;;;;5.43;3.10;;;3.40;99.90;;;;;;5025805;28;20203;-68
2022/12/20 03:33:14;;;;;;;5.20;2.57;;;3.60;99.90;;;;;;5020329;28;20178;-68
2022/12/20 03:35:40;;;;;;;4.20;2.30;;;3.60;99.90;;;;;;5024110;28;20425;-68
2022/12/20 03:38:06;;;;;;;4.90;3.43;;;3.60;99.90;;;;;;5028890;28;20448;-68
2022/12/20 03:40:32;;;;;;;7.97;2.93;;;3.60;99.90;;;;;;5024159;28;20186;-68
2022/12/20 03:42:57;;;;;;;3.60;2.10;;;3.50;99.90;;;;;;5027163;28;20220;-68
2022/12/20 03:45:23;;;;;;;4.17;2.00;;;3.40;99.90;;;;;;5025158;28;20229;-68
2022/12/20 03:47:48;;;;;;;7.27;2.30;;;3.40;99.90;;;;;;5023849;28;20193;-68
2022/12/20 03:50:14;;;;;;;10.67;2.63;;;3.40;99.90;;;;;;5025638;28;20405;-68
2022/12/20 03:52:40;;;;;;;7.80;2.87;;;3.40;99.90;;;;;;5030487;28;20187;-68
2022/12/20 03:55:06;;;;;;;6.27;3.13;;;3.40;99.90;;;;;;5030648;28;20185;-68
2022/12/20 03:57:32;;;;;;;6.33;3.27;;;3.40;99.90;;;;;;5030569;28;20189;-68
2022/12/20 03:59:57;;;;;;;6.87;3.00;;;3.40;99.90;;;;;;5030253;28;20425;-68
2022/12/20 04:02:23;;;;;;;9.63;3.83;;;3.40;99.90;;;;;;5030364;28;20231;-68
2022/12/20 04:04:48;;;;;;;4.00;2.33;;;3.50;99.90;;;;;;5020715;28;20194;-68
2022/12/20 04:07:14;;;;;;;5.03;2.77;;;3.60;99.90;;;;;;5023660;28;20233;-68
2022/12/20 04:09:40;;;;;;;5.27;3.17;;;3.60;99.90;;;;;;5030014;28;20657;-68
2022/12/20 04:12:06;;;;;;;5.13;2.40;;;3.60;99.90;;;;;;5026982;28;20178;-68
2022/12/20 04:14:31;;;;;;;4.60;2.20;;;3.70;99.90;;;;;;5029920;28;20183;-68
2022/12/20 04:16:57;;;;;;;3.50;2.30;;;3.70;99.90;;;;;;5030870;28;20530;-68
2022/12/20 04:19:23;;;;;;;6.50;2.63;;;3.60;99.90;;;;;;5028210;28;20635;-68
2022/12/20 04:21:49;;;;;;;4.47;2.63;;;3.60;99.90;;;;;;5025365;28;20186;-68
2022/12/20 04:24:14;;;;;;;5.63;2.60;;;3.60;99.90;;;;;;5026575;28;20189;-68
2022/12/20 04:26:40;;;;;;;8.93;2.50;;;3.60;99.90;;;;;;5024205;28;20425;-68
2022/12/20 04:29:06;;;;;;;4.90;2.33;;;3.60;99.90;;;;;;5022279;28;20175;-68
2022/12/20 04:31:32;;;;;;;4.90;2.60;;;3.70;99.90;;;;;;5017866;28;20185;-68
2022/12/20 04:33:57;;;;;;;17.60;4.30;;;3.80;99.90;;;;;;5023864;28;20316;-68
2022/12/20 04:36:23;;;;;;;13.00;3.63;;;3.90;99.90;;;;;;5026774;28;20332;-68
2022/12/20 04:38:48;;;;;;;8.00;3.10;;;3.90;99.90;;;;;;5029632;28;20272;-68
2022/12/20 04:41:21;;;;;;;8.17;3.57;;;3.90;99.90;;;;;;5030197;28;20178;-68
2022/12/20 04:43:55;;;;;;;5.50;2.73;;;3.80;99.90;;;;;;5027970;28;20182;-68
2022/12/20 04:46:22;;;;;;;2.67;2.17;;;3.80;99.90;;;;;;5024196;28;20432;-68
2022/12/20 04:48:48;;;;;;;7.70;3.20;;;3.80;99.90;;;;;;5030573;28;20748;-68
2022/12/20 04:51:14;;;;;;;8.93;3.20;;;3.80;99.90;;;;;;5027793;28;20469;-68
2022/12/20 04:53:46;;;;;;;7.33;3.13;;;3.80;99.90;;;;;;5025291;28;20179;-68
2022/12/20 04:56:14;;;;;;;4.00;2.20;;;3.80;99.90;;;;;;5021944;28;20428;-68
2022/12/20 04:58:39;;;;;;;4.87;3.07;;;3.70;99.90;;;;;;5025307;28;20453;-68
2022/12/20 05:01:05;;;;;;;10.20;4.50;;;3.70;99.90;;;;;;5026961;28;20773;-68
2022/12/20 05:03:30;;;;;;;9.20;3.30;;;3.60;99.90;;;;;;5030212;28;20237;-68
2022/12/20 05:05:56;;;;;;;6.07;2.70;;;3.60;99.90;;;;;;5026310;28;20201;-68
2022/12/20 05:08:22;;;;;;;9.97;4.23;;;3.60;99.90;;;;;;5026652;28;20562;-68
2022/12/20 05:10:48;;;;;;;8.53;3.30;;;3.70;99.90;;;;;;5029154;28;20206;-68
2022/12/20 05:13:14;;;;;;;8.30;3.60;;;3.70;99.90;;;;;;5032712;28;20479;-68
2022/12/20 05:15:41;;;;;;;8.67;3.20;;;3.80;99.90;;;;;;5032646;28;20198;-68
2022/12/20 05:18:06;;;;;;;9.73;3.43;;;3.90;99.90;;;;;;5033953;28;20491;-69
2022/12/20 05:20:32;;;;;;;8.90;3.80;;;4.00;99.90;;;;;;5033729;28;20506;-68
2022/12/20 05:26:28;;;;;;;10.33;3.17;;;4.20;99.90;;;;;;5027868;28;20205;-68
2022/12/20 05:28:34;;;;;;;6.80;3.10;;;4.20;99.90;;;;;;5026032;28;20631;-69
2022/12/20 05:31:00;;;;;;;7.00;2.60;;;4.20;99.90;;;;;;5028264;28;20465;-68
2022/12/20 05:33:26;;;;;;;7.77;2.57;;;4.20;99.90;;;;;;5033020;28;20268;-68
2022/12/20 05:35:52;;;;;;;6.70;3.30;;;4.20;99.90;;;;;;5026187;28;20648;-68
2022/12/20 05:38:18;;;;;;;4.60;2.77;;;4.20;99.90;;;;;;5033229;28;20507;-69
2022/12/20 05:40:47;;;;;;;7.63;3.20;;;4.10;99.90;;;;;;5026949;28;20289;-69
2022/12/20 05:43:12;;;;;;;4.60;2.40;;;4.10;99.90;;;;;;5029647;28;20171;-68
2022/12/20 05:45:38;;;;;;;5.47;3.23;;;4.20;99.90;;;;;;5021469;28;20436;-69
2022/12/20 05:48:04;;;;;;;4.37;2.87;;;4.30;99.90;;;;;;5031771;28;20479;-68
2022/12/20 05:50:29;;;;;;;6.47;3.00;;;4.40;99.90;;;;;;5028765;28;20278;-68
2022/12/20 05:52:55;;;;;;;12.20;2.73;;;4.50;99.90;;;;;;5028898;28;20622;-69
2022/12/20 05:55:20;;;;;;;3.70;2.10;;;4.50;99.90;;;;;;5026135;28;20198;-69
2022/12/20 05:57:46;;;;;;;4.33;2.13;;;4.60;99.90;;;;;;5032720;28;20282;-69
2022/12/20 06:00:12;;;;;;;5.07;2.80;;;4.70;99.90;;;;;;5029195;28;20170;-68
2022/12/20 06:02:38;;;;;;;9.40;3.13;;;4.80;99.90;;;;;;5028236;28;20205;-68
2022/12/20 06:05:04;;;;;;;7.23;3.03;;;4.90;99.90;;;;;;5026062;28;20444;-69
2022/12/20 06:07:30;;;;;;;6.03;2.03;;;5.00;99.90;;;;;;5022981;28;20487;-69
2022/12/20 06:09:57;;;;;;;4.27;2.13;;;5.10;99.90;;;;;;5027025;28;20501;-69
2022/12/20 06:12:23;;;;;;;5.67;2.13;;;5.10;99.90;;;;;;5029631;28;20179;-69
2022/12/20 06:14:49;;;;;;;7.53;3.33;;;5.20;99.90;;;;;;5027259;28;21004;-69
2022/12/20 06:17:14;;;;;;;3.30;2.27;;;5.30;99.90;;;;;;5031425;28;20500;-69
2022/12/20 06:19:40;;;;;;;7.03;2.00;;;5.40;99.90;;;;;;5032430;28;20906;-68
2022/12/20 06:22:09;;;;;;;4.40;2.23;;;5.40;99.90;;;;;;5032201;28;20202;-68
2022/12/20 06:24:35;;;;;;;5.43;2.10;;;5.40;99.90;;;;;;5032209;28;20232;-68
2022/12/20 06:27:02;;;;;;;7.13;2.63;;;5.40;99.90;;;;;;5032180;28;20475;-68
2022/12/20 06:29:28;;;;;;;6.13;3.10;;;5.40;99.90;;;;;;5031613;28;20511;-68
2022/12/20 06:31:54;;;;;;;3.30;1.70;;;5.40;99.90;;;;;;5032022;28;20421;-68
2022/12/20 06:34:20;;;;;;;2.63;2.03;;;5.40;99.90;;;;;;5028855;28;21812;-68
2022/12/20 06:36:46;;;;;;;5.20;2.60;;;5.40;99.90;;;;;;5031251;28;20466;-68
2022/12/20 06:39:12;;;;;;;3.17;1.93;;;5.30;99.90;;;;;;5031001;28;20174;-68
2022/12/20 06:41:39;;;;;;;3.90;2.17;;;5.40;99.90;;;;;;5030170;28;20606;-69
2022/12/20 06:44:05;;;;;;;4.10;2.20;;;5.40;99.90;;;;;;5030424;28;20422;-69
2022/12/20 06:46:30;;;;;;;6.47;2.13;;;5.40;99.90;;;;;;5030996;28;20464;-69
2022/12/20 06:48:56;;;;;;;4.10;2.10;;;5.40;99.90;;;;;;5030841;28;20911;-68
2022/12/20 06:51:22;;;;;;;4.97;2.03;;;5.30;99.90;;;;;;5030955;28;20190;-68
2022/12/20 06:53:47;;;;;;;6.20;2.30;;;5.50;99.90;;;;;;5030176;28;20182;-68
2022/12/20 06:56:13;;;;;;;4.43;2.00;;;5.50;99.90;;;;;;5030330;28;20178;-68
2022/12/20 06:58:39;;;;;;;9.50;2.37;;;5.50;99.90;;;;;;5030131;28;20237;-68
2022/12/20 07:01:05;;;;;;;7.30;2.37;;;5.50;99.90;;;;;;5030207;28;20231;-69
2022/12/20 07:03:30;;;;;;;3.60;2.10;;;5.50;99.90;;;;;;5029981;28;20178;-69
2022/12/20 07:05:56;;;;;;;5.00;2.30;;;5.50;99.90;;;;;;5026154;28;20221;-68
2022/12/20 07:08:22;;;;;;;5.83;1.97;;;5.50;99.90;;;;;;5016098;28;20210;-69
2022/12/20 07:10:48;;;;;;;5.40;1.97;;;5.60;99.90;;;;;;5028983;28;20278;-71
2022/12/20 07:13:14;;;;;;;4.43;2.03;;;5.60;99.90;;;;;;5028842;28;20861;-68
2022/12/20 07:15:40;;;;;;;4.57;2.00;;;5.60;99.90;;;;;;5013676;28;20190;-69
2022/12/20 07:18:05;;;;;;;4.70;2.10;;;5.50;99.90;;;;;;5028003;28;20409;-69
2022/12/20 07:20:31;;;;;;;3.63;1.63;;;5.50;99.90;;;;;;5029888;28;20627;-68
2022/12/20 07:22:57;;;;;;;4.53;2.30;;;5.50;99.90;;;;;;5029336;28;20179;-68
2022/12/20 07:25:24;;;;;;;3.60;2.40;;;5.60;99.90;;;;;;5029044;28;20313;-71
2022/12/20 07:27:50;;;;;;;3.90;2.00;;;5.70;99.90;;;;;;5029133;28;20181;-68
2022/12/20 07:30:18;;;;;;;4.30;1.73;;;5.80;99.90;;;;;;5029820;28;20485;-68
2022/12/20 07:32:43;;;;;;;4.33;1.93;;;5.90;99.90;;;;;;5022725;28;20433;-68
2022/12/20 07:35:10;;;;;;;3.07;1.87;;;5.90;99.90;;;;;;5021769;28;20435;-69
2022/12/20 07:37:37;;;;;;;4.13;2.37;;;6.00;99.90;;;;;;5025635;28;20632;-68
2022/12/20 07:40:03;;;;;;;6.87;2.20;;;6.10;99.90;;;;;;5029129;28;20433;-69
2022/12/20 07:42:28;;;;;;;4.27;2.00;;;6.00;99.90;;;;;;5026567;28;20440;-68
2022/12/20 07:44:54;;;;;;;5.33;2.33;;;6.10;99.90;;;;;;5027555;28;20461;-68
2022/12/20 07:47:20;;;;;;;4.80;1.67;;;6.10;99.90;;;;;;5028468;28;20635;-68
2022/12/20 07:49:48;;;;;;;6.67;3.20;;;6.10;99.90;;;;;;5024137;28;20206;-68
2022/12/20 07:52:15;;;;;;;10.50;2.33;;;6.00;99.90;;;;;;5028463;28;20190;-70
2022/12/20 07:54:45;;;;;;;7.23;2.20;;;6.00;99.90;;;;;;5028407;28;20439;-70
2022/12/20 07:57:20;;;;;;;5.63;2.70;;;6.10;99.90;;;;;;5027591;28;20972;-67
2022/12/20 07:59:50;;;;;;;5.17;1.87;;;6.10;99.90;;;;;;5028125;28;20452;-67
2022/12/20 08:02:21;;;;;;;5.00;2.00;;;6.10;99.90;;;;;;5028193;28;20517;-68
2022/12/20 08:04:48;;;;;;;5.27;2.03;;;6.10;99.90;;;;;;5028485;28;20425;-68
2022/12/20 08:07:13;;;;;;;3.80;1.80;;;6.20;99.90;;;;;;5028885;28;20425;-68
2022/12/20 08:09:42;;;;;;;4.40;2.07;;;6.20;99.90;;;;;;5027972;28;20956;-68
2022/12/20 08:12:12;;;;;;;4.40;1.73;;;6.10;99.90;;;;;;5027804;28;20545;-64
2022/12/20 08:14:37;;;;;;;7.80;2.40;;;6.20;99.90;;;;;;5027087;28;20897;-64
2022/12/20 08:17:03;;;;;;;3.47;1.70;;;6.20;99.90;;;;;;5028746;28;20432;-64
2022/12/20 08:19:29;;;;;;;4.03;2.10;;;6.30;99.90;;;;;;5028401;28;20273;-65
2022/12/20 08:21:54;;;;;;;5.50;1.80;;;6.30;99.90;;;;;;5028110;28;20742;-66
2022/12/20 08:24:20;;;;;;;6.80;2.77;;;6.30;99.90;;;;;;5030419;28;20224;-66
2022/12/20 08:26:45;;;;;;;5.23;2.07;;;6.30;99.90;;;;;;5031971;28;20193;-66
2022/12/20 08:29:11;;;;;;;3.70;1.83;;;6.30;99.90;;;;;;5034115;28;20170;-69
2022/12/20 08:31:41;;;;;;;5.73;2.30;;;6.30;99.90;;;;;;5023813;28;20190;-69
2022/12/20 08:34:07;;;;;;;8.27;2.47;;;6.30;99.90;;;;;;5024542;28;20515;-69
2022/12/20 08:36:33;;;;;;;4.60;1.77;;;6.30;99.90;;;;;;5024750;28;20873;-69
2022/12/20 08:39:02;;;;;;;6.13;2.37;;;6.30;99.90;;;;;;5021067;28;20471;-69
2022/12/20 08:41:28;;;;;;;3.20;1.47;;;6.20;99.90;;;;;;5031478;28;20225;-71
2022/12/20 08:43:53;;;;;;;3.50;2.03;;;6.20;99.90;;;;;;5032360;28;20417;-72
2022/12/20 08:46:19;;;;;;;5.00;1.37;;;6.20;99.90;;;;;;5034364;28;20635;-73
2022/12/20 08:48:44;;;;;;;7.57;2.73;;;6.30;99.90;;;;;;5019569;28;20257;-72
2022/12/20 08:51:11;;;;;;;4.27;2.07;;;6.30;99.90;;;;;;5023479;28;20221;-71
2022/12/20 08:53:37;;;;;;;4.43;2.50;;;6.40;99.90;;;;;;5029220;28;20920;-71
2022/12/20 08:56:07;;;;;;;2.77;1.83;;;6.40;99.90;;;;;;5030398;28;20425;-71
2022/12/20 08:58:33;;;;;;;2.23;1.50;;;6.40;99.90;;;;;;5031942;28;20472;-72
2022/12/20 09:01:00;;;;;;;7.10;2.13;;;6.30;99.90;;;;;;5031100;28;20437;-71
2022/12/20 09:03:29;;;;;;;5.20;2.00;;;6.30;99.90;;;;;;5031744;28;20436;-71
2022/12/20 09:05:55;;;;;;;4.33;1.60;;;6.30;99.90;;;;;;5027914;28;20422;-71
2022/12/20 09:08:21;;;;;;;5.20;2.03;;;6.30;99.90;;;;;;5031331;28;20437;-71
2022/12/20 09:10:46;;;;;;;4.00;1.70;;;6.40;99.90;;;;;;5030453;28;20468;-71
2022/12/20 09:13:12;;;;;;;4.70;1.97;;;6.40;99.90;;;;;;5030759;28;20938;-71
2022/12/20 09:15:38;;;;;;;3.13;1.70;;;6.50;99.90;;;;;;5031295;28;20566;-71
2022/12/20 09:18:04;;;;;;;8.80;2.43;;;6.40;99.90;;;;;;5031740;28;20182;-71
2022/12/20 09:20:31;;;;;;;4.60;2.57;;;6.40;99.90;;;;;;5030728;28;20205;-70
2022/12/20 09:22:58;;;;;;;4.00;2.10;;;6.50;99.90;;;;;;5031579;28;20425;-71
2022/12/20 09:25:25;;;;;;;4.70;1.97;;;6.40;99.90;;;;;;5031261;28;20421;-71
2022/12/20 09:27:50;;;;;;;4.63;2.03;;;6.40;99.90;;;;;;5030957;28;21030;-71
2022/12/20 09:30:16;;;;;;;5.50;1.33;;;6.50;99.90;;;;;;5031181;28;20465;-71
2022/12/20 09:32:42;;;;;;;2.20;1.50;;;6.60;99.90;;;;;;5017272;28;20190;-71
2022/12/20 09:35:07;;;;;;;2.83;1.53;;;6.60;99.90;;;;;;5030393;28;20186;-71
2022/12/20 09:37:33;;;;;;;2.07;1.20;;;6.60;99.90;;;;;;5031383;28;20201;-71
2022/12/20 09:39:59;;;;;;;3.93;1.93;;;6.70;99.90;;;;;;5030354;28;20591;-71
2022/12/20 09:42:27;;;;;;;3.53;2.00;;;6.70;99.90;;;;;;5029999;28;20519;-71
2022/12/20 09:45:08;;;;;;;3.10;1.57;;;6.70;99.90;;;;;;5030727;28;20268;-71
2022/12/20 09:47:35;;;;;;;4.87;2.20;;;6.80;99.90;;;;;;5030677;28;20421;-71
2022/12/20 09:50:03;;;;;;;4.70;2.23;;;6.80;99.90;;;;;;5031228;28;20456;-71
2022/12/20 09:52:47;;;;;;;4.30;2.17;;;6.90;99.90;;;;;;5029924;28;20417;-71
2022/12/20 09:55:32;;;;;;;3.23;1.73;;;7.10;99.90;;;;;;5031216;28;20444;-71
2022/12/20 09:58:10;;;;;;;1.90;1.37;;;7.10;99.90;;;;;;5030209;28;20584;-71
2022/12/20 10:00:43;;;;;;;2.60;1.60;;;7.20;99.90;;;;;;5029822;28;20420;-71
2022/12/20 10:03:18;;;;;;;4.03;2.13;;;7.20;99.90;;;;;;5027996;28;20516;-71
2022/12/20 10:05:44;;;;;;;4.13;2.07;;;7.20;99.90;;;;;;5029682;28;20440;-71
2022/12/20 10:08:35;;;;;;;3.33;1.87;;;7.20;99.90;;;;;;5029531;28;20428;-71
2022/12/20 10:11:18;;;;;;;6.40;2.10;;;7.20;99.90;;;;;;5028151;28;20452;-71
2022/12/20 10:14:00;;;;;;;2.73;1.47;;;7.10;99.90;;;;;;5028072;28;20417;-71
2022/12/20 10:16:43;;;;;;;5.53;2.30;;;7.00;99.90;;;;;;5027942;28;20882;-71
2022/12/20 10:19:46;;;;;;;5.73;2.43;;;7.00;99.90;;;;;;5028713;28;20500;-71
2022/12/20 10:22:22;;;;;;;3.90;1.80;;;6.90;99.90;;;;;;5024986;28;20421;-71
2022/12/20 10:24:58;;;;;;;4.23;2.10;;;6.80;99.90;;;;;;5029198;28;20444;-71
2022/12/20 10:27:24;;;;;;;3.70;1.87;;;6.80;99.90;;;;;;5028696;28;20427;-71
2022/12/20 10:29:51;;;;;;;4.47;1.50;;;6.80;99.90;;;;;;5028307;28;20838;-71
2022/12/20 10:32:19;;;;;;;4.20;1.93;;;6.80;99.90;;;;;;5028052;28;20190;-71
2022/12/20 10:34:58;;;;;;;4.70;2.27;;;6.80;99.90;;;;;;5029010;28;20433;-71
2022/12/20 10:37:24;;;;;;;3.37;1.83;;;6.70;99.90;;;;;;5028298;28;20427;-70
2022/12/20 10:39:51;;;;;;;3.57;2.00;;;6.70;99.90;;;;;;5025778;28;20560;-71
2022/12/20 10:42:43;;;;;;;3.87;1.90;;;6.70;99.90;;;;;;5027845;28;20663;-70
2022/12/20 10:45:14;;;;;;;3.80;1.73;;;6.60;99.90;;;;;;5023228;28;20436;-71
2022/12/20 10:47:43;;;;;;;3.17;1.70;;;6.70;99.90;;;;;;5027788;28;20516;-71
2022/12/20 10:50:21;;;;;;;2.43;1.40;;;6.80;99.90;;;;;;5028440;28;20854;-71
2022/12/20 10:53:18;;;;;;;2.57;1.20;;;6.80;99.90;;;;;;5026002;28;20417;-71
2022/12/20 10:55:43;;;;;;;2.67;1.37;;;6.80;99.90;;;;;;5026412;28;20413;-71
2022/12/20 10:58:32;;;;;;;2.53;1.50;;;6.80;99.90;;;;;;5028217;28;20783;-71
2022/12/20 11:01:12;;;;;;;2.10;1.30;;;7.00;99.90;;;;;;5027082;28;20498;-71
2022/12/20 11:04:04;;;;;;;4.63;1.60;;;7.00;99.90;;;;;;5024508;28;20512;-70
2022/12/20 11:06:36;;;;;;;3.20;1.73;;;7.00;99.90;;;;;;5028946;28;20906;-71
2022/12/20 11:09:23;;;;;;;3.43;1.33;;;7.10;99.90;;;;;;5027914;28;20445;-71
2022/12/20 11:11:58;;;;;;;2.70;1.00;;;7.20;99.90;;;;;;5027343;28;20446;-72
2022/12/20 11:14:24;;;;;;;8.33;1.93;;;7.20;99.90;;;;;;5027439;28;20425;-71
2022/12/20 11:16:53;;;;;;;6.23;2.13;;;7.20;99.90;;;;;;5012458;28;20429;-71
2022/12/20 11:19:48;;;;;;;3.90;1.90;;;7.20;99.90;;;;;;5028118;28;20429;-71
2022/12/20 11:22:16;;;;;;;2.43;1.43;;;7.10;99.90;;;;;;5027372;28;20413;-71
2022/12/20 11:24:57;;;;;;;5.53;1.63;;;7.10;99.90;;;;;;5028421;28;20413;-71
2022/12/20 11:27:30;;;;;;;4.00;1.47;;;7.10;99.90;;;;;;5026336;28;20424;-70
2022/12/20 11:29:55;;;;;;;2.77;1.77;;;7.20;99.90;;;;;;5025045;28;20472;-70
2022/12/20 11:32:28;;;;;;;3.57;1.80;;;7.20;99.90;;;;;;5025404;28;20433;-71
2022/12/20 11:35:21;;;;;;;2.70;1.27;;;7.30;99.90;;;;;;5027783;28;20345;-71
2022/12/20 11:37:52;;;;;;;5.43;2.20;;;7.40;99.90;;;;;;5026396;28;20413;-71
2022/12/20 11:40:30;;;;;;;1.87;1.13;;;7.40;99.90;;;;;;5027978;28;20433;-71
2022/12/20 11:43:26;;;;;;;2.80;1.13;;;7.50;99.90;;;;;;5010009;28;20457;-71
2022/12/20 11:46:02;;;;;;;2.93;1.10;;;7.50;99.90;;;;;;5028093;28;20428;-70
2022/12/20 11:48:50;;;;;;;2.40;1.43;;;7.50;99.90;;;;;;5028275;28;20444;-71
2022/12/20 11:51:43;;;;;;;4.07;1.43;;;7.50;99.90;;;;;;5029996;28;20542;-71
2022/12/20 11:54:19;;;;;;;4.30;1.43;;;7.50;99.90;;;;;;5029830;28;20424;-71
2022/12/20 11:56:49;;;;;;;2.87;1.27;;;7.50;99.90;;;;;;5029915;28;20417;-71
2022/12/20 11:59:42;;;;;;;1.97;1.20;;;7.50;99.90;;;;;;5028143;28;20445;-71
2022/12/20 12:02:13;;;;;;;2.90;1.60;;;7.50;99.90;;;;;;5029557;28;20417;-71
2022/12/20 12:04:56;;;;;;;3.97;1.77;;;7.50;99.90;;;;;;5030041;28;20409;-71
2022/12/20 12:07:27;;;;;;;3.50;1.87;;;7.50;99.90;;;;;;5029704;28;20432;-70
2022/12/20 12:10:06;;;;;;;3.90;1.33;;;7.50;99.90;;;;;;5029992;28;20464;-70
2022/12/20 12:12:34;;;;;;;4.80;1.90;;;7.40;99.90;;;;;;5028967;28;20417;-70
2022/12/20 12:15:19;;;;;;;2.63;1.30;;;7.40;99.90;;;;;;5021350;28;20434;-70
2022/12/20 12:17:51;;;;;;;2.73;1.63;;;7.40;99.90;;;;;;5025384;28;20429;-70
2022/12/20 12:20:46;;;;;;;4.50;1.87;;;7.50;99.90;;;;;;5021481;28;20433;-70
2022/12/20 12:23:25;;;;;;;5.93;2.30;;;7.50;99.90;;;;;;5024861;28;20429;-71
2022/12/20 12:25:51;;;;;;;4.07;1.73;;;7.50;99.90;;;;;;5027535;28;20429;-71
2022/12/20 12:28:18;;;;;;;3.93;1.87;;;7.50;99.90;;;;;;5028003;28;20440;-71
2022/12/20 12:30:53;;;;;;;1.83;1.20;;;7.50;99.90;;;;;;5024333;28;20769;-70
2022/12/20 12:33:29;;;;;;;9.00;2.50;;;7.50;99.90;;;;;;5020143;28;20421;-70
2022/12/20 12:36:25;;;;;;;3.23;1.93;;;7.50;99.90;;;;;;5029649;28;20467;-70
2022/12/20 12:39:39;;;;;;;2.60;1.27;;;7.50;99.90;;;;;;5015996;28;20754;-71
2022/12/20 12:42:27;;;;;;;2.43;1.43;;;7.50;99.90;;;;;;5024833;28;20936;-71
2022/12/20 12:45:12;;;;;;;4.37;2.07;;;7.50;99.90;;;;;;5020169;28;20443;-71
2022/12/20 12:47:44;;;;;;;8.00;1.70;;;7.50;99.90;;;;;;5023313;28;20532;-71
2022/12/20 12:50:38;;;;;;;1.90;1.10;;;7.50;99.90;;;;;;5023557;28;20457;-71
2022/12/20 12:53:26;;;;;;;3.20;1.20;;;7.50;99.90;;;;;;5007966;28;20439;-71
2022/12/20 12:55:53;;;;;;;4.60;2.27;;;7.60;99.90;;;;;;5021973;28;20429;-71
2022/12/20 12:58:22;;;;;;;5.60;2.20;;;7.60;99.90;;;;;;5021028;28;21759;-71
2022/12/20 13:00:58;;;;;;;5.73;1.90;;;7.50;99.90;;;;;;5017132;28;20433;-71
2022/12/20 13:04:06;;;;;;;2.50;1.43;;;7.60;99.90;;;;;;5020915;28;20451;-71
2022/12/20 13:06:34;;;;;;;8.13;1.87;;;7.60;99.90;;;;;;5018917;28;20465;-71
2022/12/20 13:09:02;;;;;;;3.60;1.90;;;7.60;99.90;;;;;;5026672;28;20452;-71
2022/12/20 13:11:35;;;;;;;4.23;2.00;;;7.60;99.90;;;;;;5026067;28;20522;-71
2022/12/20 13:14:16;;;;;;;1.83;1.13;;;7.70;99.90;;;;;;5030819;28;20413;-71
2022/12/20 13:16:44;;;;;;;4.60;1.73;;;7.80;99.90;;;;;;5032843;28;20508;-71
2022/12/20 13:19:15;;;;;;;3.23;1.80;;;7.80;99.90;;;;;;5030840;28;20453;-70